Terminal Aerodrome Forecast
Issued by NWS Upton, NY

Home | Current Version | Previous Version | Text Only | Print | Product List | Glossary On
Versions: 1 2 3 4 5 6 7 8 9 10 11 12 13 14 15 16 17 18 19 20 21 22 23 24 25 26 27 28
746
FTUS41 KOKX 261617 AAA
TAFBDR
TAF AMD
KBDR 261617Z 2616/2712 06009KT P6SM OVC045
     FM262200 08010KT P6SM SCT025 OVC040
     FM270000 07010KT P6SM BKN020
      TEMPO 2702/2704 6SM BR BKN015
     FM270400 07011KT 4SM BR OVC015
     FM270700 07010KT 2SM BR OVC008
     FM271100 07007KT 1SM BR OVC004=

USA.gov is the U.S. government's official web portal to all federal, state and local government web resources and services.